Meath Environmental Platform

Observations for Trim Patrick St

Time AQI Temp °C Hum % Pres Pa CO μg/m³ H₂S μg/m³ NO μg/m³ NO₂ μg/m³ O₃ μg/m³ SO₂ μg/m³ PM1 μg/m³ PM2.5 μg/m³ PM10 μg/m³
Friday 7 August 2026
10:04 1 25.2 50 69,080 0 0 1.95 6.85 56.06 6.43 2.86 9.5 10.44
10:02 1 25.1 47 69,130 0 0 1.88 7.51 59.78 6.9 3.71 9.68 10.65
10:01 1 25 48 69,149 0 0 1.96 7.03 50.69 6.9 4.57 9.64 10.6
10:00 1 25 47 69,171 0 0 1.91 10.14 64.97 6.48 2 8.93 9.83
09:59 1 25 46 69,171 0 0 1.86 6.5 55.48 6.33 4.57 9.73 10.7
09:58 1 25 48 69,177 0 0 1.9 6.87 63.69 6.62 3.71 9.64 10.6
09:56 1 25.1 46 69,155 0 0 1.86 6.93 39.43 5.97 3.71 10.5 11.55
09:49 1 25.1 46 69,271 0 0 1.87 7.84 54.89 7.03 3.71 8.96 9.86
09:48 1 25.2 47 69,302 0 0 1.8 7.15 33.63 6.81 3.71 10.46 11.5
09:46 1 25.3 47 69,318 0 0 1.76 6.61 22.62 6.38 2.86 8.91 9.8
09:45 1 25.2 51 69,334 0 0 2.06 8.02 50.82 8.1 3.71 9.39 10.33
09:44 1 25.1 47 69,353 0 0 1.91 9.77 52.02 6.48 2.86 8.12 8.93
09:43 1 25.1 49 69,347 0 0 1.94 8.97 51.63 6.91 3.71 8.79 9.67
09:42 1 25 50 69,373 0 0 2.12 6.71 30.18 5.99 3.71 8.72 9.6
09:41 1 24.9 48 69,406 0 0 2.09 5.77 37.22 6.68 2 8.05 8.85
09:40 1 24.9 48 69,450 0 0 2.08 8.84 46.66 6.35 2.86 8.05 8.86
09:39 1 24.8 50 69,477 0 0 2.25 10.52 7.71 5.06 3.71 8.73 9.6
09:38 1 24.8 50 69,513 0 0 2.27 8.73 55.77 6.61 3.71 9.49 10.44
09:37 1 24.7 51 69,561 0 0 2.47 5.84 26.47 5.39 2.86 8.63 9.49
09:36 1 24.7 49 69,626 0 0 2.23 6.59 47.91 6.52 2.86 9.53 10.48